sensor_id;sensor_type;location;lat;lon;timestamp;pressure;altitude;pressure_sealevel;temperature;humidity
62617;BME280;62539;51.190;6.808;2022-11-20T00:00:54;100945.13;;;19.07;57.93
62617;BME280;62539;51.190;6.808;2022-11-20T00:03:20;100950.41;;;19.05;58.02
62617;BME280;62539;51.190;6.808;2022-11-20T00:05:46;100940.88;;;19.03;58.20
62617;BME280;62539;51.190;6.808;2022-11-20T00:08:11;100941.81;;;19.00;58.37
62617;BME280;62539;51.190;6.808;2022-11-20T00:10:38;100946.34;;;18.97;58.32
62617;BME280;62539;51.190;6.808;2022-11-20T00:13:05;100932.44;;;18.91;58.45
62617;BME280;62539;51.190;6.808;2022-11-20T00:15:31;100933.41;;;18.89;58.63
62617;BME280;62539;51.190;6.808;2022-11-20T00:17:57;100940.47;;;18.87;58.52
62617;BME280;62539;51.190;6.808;2022-11-20T00:20:23;100935.31;;;18.84;58.49
62617;BME280;62539;51.190;6.808;2022-11-20T00:22:49;100945.94;;;18.80;58.73
62617;BME280;62539;51.190;6.808;2022-11-20T00:25:15;100941.66;;;18.78;58.58
62617;BME280;62539;51.190;6.808;2022-11-20T00:27:40;100937.34;;;18.75;58.94
62617;BME280;62539;51.190;6.808;2022-11-20T00:30:06;100944.41;;;18.73;58.98
62617;BME280;62539;51.190;6.808;2022-11-20T00:32:32;100936.59;;;18.72;59.03
62617;BME280;62539;51.190;6.808;2022-11-20T00:34:57;100939.25;;;18.70;58.66
62617;BME280;62539;51.190;6.808;2022-11-20T00:37:23;100941.06;;;18.68;58.99
62617;BME280;62539;51.190;6.808;2022-11-20T00:39:48;100930.66;;;18.65;58.87
62617;BME280;62539;51.190;6.808;2022-11-20T00:42:13;100937.72;;;18.63;59.01
62617;BME280;62539;51.190;6.808;2022-11-20T00:44:39;100930.88;;;18.59;59.09
62617;BME280;62539;51.190;6.808;2022-11-20T00:47:04;100929.22;;;18.56;59.02
62617;BME280;62539;51.190;6.808;2022-11-20T00:49:30;100924.88;;;18.55;59.25
62617;BME280;62539;51.190;6.808;2022-11-20T00:51:55;100932.81;;;18.54;59.23
62617;BME280;62539;51.190;6.808;2022-11-20T00:54:21;100923.22;;;18.53;59.33
62617;BME280;62539;51.190;6.808;2022-11-20T00:56:46;100923.22;;;18.53;59.46
62617;BME280;62539;51.190;6.808;2022-11-20T00:59:11;100925.03;;;18.50;59.15
62617;BME280;62539;51.190;6.808;2022-11-20T01:01:37;100929.41;;;18.50;59.55
62617;BME280;62539;51.190;6.808;2022-11-20T01:04:03;100936.47;;;18.48;59.29
62617;BME280;62539;51.190;6.808;2022-11-20T01:06:31;100925.13;;;18.47;59.47
62617;BME280;62539;51.190;6.808;2022-11-20T01:09:02;100922.59;;;18.44;59.24
62617;BME280;62539;51.190;6.808;2022-11-20T01:11:32;100919.16;;;18.42;59.47
62617;BME280;62539;51.190;6.808;2022-11-20T01:14:01;100921.81;;;18.41;59.62
62617;BME280;62539;51.190;6.808;2022-11-20T01:16:31;100920.09;;;18.40;59.59
62617;BME280;62539;51.190;6.808;2022-11-20T01:19:00;100918.38;;;18.39;59.42
62617;BME280;62539;51.190;6.808;2022-11-20T01:21:35;100915.81;;;18.37;59.68
62617;BME280;62539;51.190;6.808;2022-11-20T01:24:04;100908.84;;;18.36;59.61
62617;BME280;62539;51.190;6.808;2022-11-20T01:26:32;100915.84;;;18.35;59.43
62617;BME280;62539;51.190;6.808;2022-11-20T01:28:59;100915.91;;;18.34;59.42
62617;BME280;62539;51.190;6.808;2022-11-20T01:31:36;100923.88;;;18.31;59.35
62617;BME280;62539;51.190;6.808;2022-11-20T01:34:04;100923.06;;;18.29;59.56
62617;BME280;62539;51.190;6.808;2022-11-20T01:36:33;100923.16;;;18.26;59.76
62617;BME280;62539;51.190;6.808;2022-11-20T01:39:03;100915.31;;;18.24;59.66
62617;BME280;62539;51.190;6.808;2022-11-20T01:41:32;100914.47;;;18.24;59.61
62617;BME280;62539;51.190;6.808;2022-11-20T01:44:20;100916.28;;;18.21;59.74
62617;BME280;62539;51.190;6.808;2022-11-20T01:46:57;100910.22;;;18.19;59.92
62617;BME280;62539;51.190;6.808;2022-11-20T01:49:32;100911.13;;;18.18;59.83
62617;BME280;62539;51.190;6.808;2022-11-20T01:52:07;100909.41;;;18.17;59.65
62617;BME280;62539;51.190;6.808;2022-11-20T01:54:50;100911.22;;;18.15;59.93
62617;BME280;62539;51.190;6.808;2022-11-20T01:57:22;100914.75;;;18.14;59.86
62617;BME280;62539;51.190;6.808;2022-11-20T01:59:59;100910.41;;;18.13;60.23
62617;BME280;62539;51.190;6.808;2022-11-20T02:02:37;100908.69;;;18.12;59.93
62617;BME280;62539;51.190;6.808;2022-11-20T02:05:27;100903.47;;;18.11;59.88
62617;BME280;62539;51.190;6.808;2022-11-20T02:07:58;100900.91;;;18.09;59.75
62617;BME280;62539;51.190;6.808;2022-11-20T02:10:25;100893.94;;;18.08;59.87
62617;BME280;62539;51.190;6.808;2022-11-20T02:12:53;100895.69;;;18.07;60.11
62617;BME280;62539;51.190;6.808;2022-11-20T02:15:37;100900.09;;;18.07;60.06
62617;BME280;62539;51.190;6.808;2022-11-20T02:18:04;100885.25;;;18.06;60.13
62617;BME280;62539;51.190;6.808;2022-11-20T02:20:30;100875.66;;;18.05;60.36
62617;BME280;62539;51.190;6.808;2022-11-20T02:23:00;100860.81;;;18.04;60.43
62617;BME280;62539;51.190;6.808;2022-11-20T02:25:32;100866.06;;;18.04;60.19
62617;BME280;62539;51.190;6.808;2022-11-20T02:28:00;100856.50;;;18.01;60.29
62617;BME280;62539;51.190;6.808;2022-11-20T02:30:26;100860.91;;;18.01;60.21
62617;BME280;62539;51.190;6.808;2022-11-20T02:32:52;100861.81;;;18.00;60.20
62617;BME280;62539;51.190;6.808;2022-11-20T02:37:43;100868.03;;;17.96;60.05
62617;BME280;62539;51.190;6.808;2022-11-20T02:40:10;100878.53;;;17.96;60.43
62617;BME280;62539;51.190;6.808;2022-11-20T02:42:36;100869.84;;;17.93;60.25
62617;BME280;62539;51.190;6.808;2022-11-20T02:45:03;100866.41;;;17.91;60.34
62617;BME280;62539;51.190;6.808;2022-11-20T02:47:30;100875.19;;;17.90;60.25
62617;BME280;62539;51.190;6.808;2022-11-20T02:49:56;100868.22;;;17.89;60.35
62617;BME280;62539;51.190;6.808;2022-11-20T02:52:21;100870.03;;;17.87;60.31
62617;BME280;62539;51.190;6.808;2022-11-20T02:54:47;100873.56;;;17.86;60.40
62617;BME280;62539;51.190;6.808;2022-11-20T02:57:12;100865.78;;;17.83;60.35
62617;BME280;62539;51.190;6.808;2022-11-20T02:59:38;100872.78;;;17.83;60.58
62617;BME280;62539;51.190;6.808;2022-11-20T03:02:03;100875.47;;;17.81;60.40
62617;BME280;62539;51.190;6.808;2022-11-20T03:04:30;100877.28;;;17.79;60.45
62617;BME280;62539;51.190;6.808;2022-11-20T03:06:55;100875.56;;;17.78;60.56
62617;BME280;62539;51.190;6.808;2022-11-20T03:09:21;100872.13;;;17.76;60.59
62617;BME280;62539;51.190;6.808;2022-11-20T03:11:46;100873.94;;;17.74;60.62
62617;BME280;62539;51.190;6.808;2022-11-20T03:14:12;100872.19;;;17.73;60.52
62617;BME280;62539;51.190;6.808;2022-11-20T03:16:39;100874.00;;;17.71;60.48
62617;BME280;62539;51.190;6.808;2022-11-20T03:19:04;100869.66;;;17.70;60.68
62617;BME280;62539;51.190;6.808;2022-11-20T03:21:32;100872.28;;;17.70;60.64
62617;BME280;62539;51.190;6.808;2022-11-20T03:23:58;100861.88;;;17.67;60.59
62617;BME280;62539;51.190;6.808;2022-11-20T03:26:25;100872.38;;;17.67;60.53
62617;BME280;62539;51.190;6.808;2022-11-20T03:28:54;100862.78;;;17.66;60.64
62617;BME280;62539;51.190;6.808;2022-11-20T03:31:24;100861.09;;;17.63;60.76
62617;BME280;62539;51.190;6.808;2022-11-20T03:33:51;100865.50;;;17.62;60.59
62617;BME280;62539;51.190;6.808;2022-11-20T03:36:19;100867.31;;;17.60;60.73
62617;BME280;62539;51.190;6.808;2022-11-20T03:38:47;100867.41;;;17.57;60.54
62617;BME280;62539;51.190;6.808;2022-11-20T03:41:15;100860.44;;;17.56;60.70
62617;BME280;62539;51.190;6.808;2022-11-20T03:43:52;100849.13;;;17.54;60.93
62617;BME280;62539;51.190;6.808;2022-11-20T03:46:20;100850.88;;;17.54;60.63
62617;BME280;62539;51.190;6.808;2022-11-20T03:48:46;100860.53;;;17.53;60.91
62617;BME280;62539;51.190;6.808;2022-11-20T03:51:23;100861.44;;;17.51;60.87
62617;BME280;62539;51.190;6.808;2022-11-20T03:53:52;100851.84;;;17.51;60.76
62617;BME280;62539;51.190;6.808;2022-11-20T03:56:22;100849.25;;;17.49;60.88
62617;BME280;62539;51.190;6.808;2022-11-20T03:58:50;100851.94;;;17.48;60.83
62617;BME280;62539;51.190;6.808;2022-11-20T04:01:18;100854.56;;;17.48;60.98
62617;BME280;62539;51.190;6.808;2022-11-20T04:03:46;100851.13;;;17.46;60.99
62617;BME280;62539;51.190;6.808;2022-11-20T04:06:17;100865.13;;;17.45;60.94
62617;BME280;62539;51.190;6.808;2022-11-20T04:08:48;100855.53;;;17.44;61.09
62617;BME280;62539;51.190;6.808;2022-11-20T04:11:17;100854.66;;;17.43;61.18
62617;BME280;62539;51.190;6.808;2022-11-20T04:13:48;100854.66;;;17.43;61.00
62617;BME280;62539;51.190;6.808;2022-11-20T04:16:16;100845.97;;;17.41;60.98
62617;BME280;62539;51.190;6.808;2022-11-20T04:18:42;100845.13;;;17.41;61.05
62617;BME280;62539;51.190;6.808;2022-11-20T04:21:08;100844.25;;;17.40;61.13
62617;BME280;62539;51.190;6.808;2022-11-20T04:23:34;100855.63;;;17.41;61.14
62617;BME280;62539;51.190;6.808;2022-11-20T04:26:08;100859.16;;;17.40;61.31
62617;BME280;62539;51.190;6.808;2022-11-20T04:28:36;100857.44;;;17.39;60.95
62617;BME280;62539;51.190;6.808;2022-11-20T04:31:08;100857.47;;;17.37;61.20
62617;BME280;62539;51.190;6.808;2022-11-20T04:33:36;100850.47;;;17.38;61.01
62617;BME280;62539;51.190;6.808;2022-11-20T04:36:04;100853.09;;;17.38;61.04
62617;BME280;62539;51.190;6.808;2022-11-20T04:38:37;100860.09;;;17.37;61.02
62617;BME280;62539;51.190;6.808;2022-11-20T04:41:05;100859.25;;;17.37;60.92
62617;BME280;62539;51.190;6.808;2022-11-20T04:43:33;100856.63;;;17.37;60.88
62617;BME280;62539;51.190;6.808;2022-11-20T04:45:59;100858.38;;;17.36;61.03
62617;BME280;62539;51.190;6.808;2022-11-20T04:48:27;100860.16;;;17.36;61.13
62617;BME280;62539;51.190;6.808;2022-11-20T04:50:54;100858.41;;;17.34;61.14
62617;BME280;62539;51.190;6.808;2022-11-20T04:53:20;100853.19;;;17.34;61.22
62617;BME280;62539;51.190;6.808;2022-11-20T04:55:46;100854.94;;;17.34;60.99
62617;BME280;62539;51.190;6.808;2022-11-20T04:58:12;100853.22;;;17.33;61.19
62617;BME280;62539;51.190;6.808;2022-11-20T05:00:38;100856.72;;;17.32;61.12
62617;BME280;62539;51.190;6.808;2022-11-20T05:03:04;100850.63;;;17.31;60.99
62617;BME280;62539;51.190;6.808;2022-11-20T05:05:29;100855.00;;;17.31;61.34
62617;BME280;62539;51.190;6.808;2022-11-20T05:07:58;100850.63;;;17.31;60.90
62617;BME280;62539;51.190;6.808;2022-11-20T05:10:24;100843.59;;;17.33;60.90
62617;BME280;62539;51.190;6.808;2022-11-20T05:12:50;100857.44;;;17.39;60.69
62617;BME280;62539;51.190;6.808;2022-11-20T05:15:16;100866.03;;;17.44;60.54
62617;BME280;62539;51.190;6.808;2022-11-20T05:17:49;100859.72;;;17.51;60.49
62617;BME280;62539;51.190;6.808;2022-11-20T05:20:16;100852.56;;;17.56;60.16
62617;BME280;62539;51.190;6.808;2022-11-20T05:22:42;100852.38;;;17.62;60.04
62617;BME280;62539;51.190;6.808;2022-11-20T05:25:08;100851.31;;;17.70;60.07
62617;BME280;62539;51.190;6.808;2022-11-20T05:27:34;100850.25;;;17.75;59.72
62617;BME280;62539;51.190;6.808;2022-11-20T05:29:59;100859.72;;;17.81;59.75
62617;BME280;62539;51.190;6.808;2022-11-20T05:32:24;100851.69;;;17.86;59.53
62617;BME280;62539;51.190;6.808;2022-11-20T05:34:51;100853.28;;;17.91;59.38
62617;BME280;62539;51.190;6.808;2022-11-20T05:37:17;100845.22;;;17.98;59.25
62617;BME280;62539;51.190;6.808;2022-11-20T05:39:42;100848.59;;;18.03;59.05
62617;BME280;62539;51.190;6.808;2022-11-20T05:42:08;100843.19;;;18.07;58.89
62617;BME280;62539;51.190;6.808;2022-11-20T05:44:52;100844.78;;;18.13;58.65
62617;BME280;62539;51.190;6.808;2022-11-20T05:47:17;100844.63;;;18.18;58.54
62617;BME280;62539;51.190;6.808;2022-11-20T05:49:42;100852.38;;;18.23;58.76
62617;BME280;62539;51.190;6.808;2022-11-20T05:52:08;100858.31;;;18.28;58.67
62617;BME280;62539;51.190;6.808;2022-11-20T05:54:33;100850.34;;;18.31;58.55
62617;BME280;62539;51.190;6.808;2022-11-20T05:56:58;100851.06;;;18.36;58.59
62617;BME280;62539;51.190;6.808;2022-11-20T05:59:24;100847.53;;;18.37;58.48
62617;BME280;62539;51.190;6.808;2022-11-20T06:01:50;100846.56;;;18.40;58.33
62617;BME280;62539;51.190;6.808;2022-11-20T06:04:15;100851.78;;;18.41;58.30
62617;BME280;62539;51.190;6.808;2022-11-20T06:06:40;100850.84;;;18.42;58.20
62617;BME280;62539;51.190;6.808;2022-11-20T06:09:06;100842.91;;;18.44;58.22
62617;BME280;62539;51.190;6.808;2022-11-20T06:11:32;100843.78;;;18.44;58.22
62617;BME280;62539;51.190;6.808;2022-11-20T06:13:57;100845.50;;;18.45;58.18
62617;BME280;62539;51.190;6.808;2022-11-20T06:16:22;100846.41;;;18.44;58.20
62617;BME280;62539;51.190;6.808;2022-11-20T06:18:48;100837.66;;;18.44;58.11
62617;BME280;62539;51.190;6.808;2022-11-20T06:21:16;100845.59;;;18.42;58.07
62617;BME280;62539;51.190;6.808;2022-11-20T06:23:44;100841.25;;;18.41;58.15
62617;BME280;62539;51.190;6.808;2022-11-20T06:26:12;100842.16;;;18.40;58.25
62617;BME280;62539;51.190;6.808;2022-11-20T06:28:39;100843.00;;;18.41;58.22
62617;BME280;62539;51.190;6.808;2022-11-20T06:31:05;100847.31;;;18.43;58.33
62617;BME280;62539;51.190;6.808;2022-11-20T06:33:32;100843.78;;;18.44;57.98
62617;BME280;62539;51.190;6.808;2022-11-20T06:35:59;100848.94;;;18.47;57.94
62617;BME280;62539;51.190;6.808;2022-11-20T06:38:26;100845.41;;;18.48;57.76
62617;BME280;62539;51.190;6.808;2022-11-20T06:40:53;100847.03;;;18.53;57.91
62617;BME280;62539;51.190;6.808;2022-11-20T06:43:19;100851.31;;;18.55;57.47
62617;BME280;62539;51.190;6.808;2022-11-20T06:45:44;100847.69;;;18.58;57.59
62617;BME280;62539;51.190;6.808;2022-11-20T06:48:10;100847.59;;;18.61;57.22
62617;BME280;62539;51.190;6.808;2022-11-20T06:50:38;100845.72;;;18.64;57.21
62617;BME280;62539;51.190;6.808;2022-11-20T06:53:04;100850.88;;;18.68;57.43
62617;BME280;62539;51.190;6.808;2022-11-20T06:55:31;100853.44;;;18.69;57.36
62617;BME280;62539;51.190;6.808;2022-11-20T06:57:57;100855.06;;;18.73;57.39
62617;BME280;62539;51.190;6.808;2022-11-20T07:00:23;100855.94;;;18.74;57.33
62617;BME280;62539;51.190;6.808;2022-11-20T07:02:49;100859.38;;;18.76;57.26
62617;BME280;62539;51.190;6.808;2022-11-20T07:05:15;100860.19;;;18.78;56.93
62617;BME280;62539;51.190;6.808;2022-11-20T07:07:40;100860.09;;;18.79;56.81
62617;BME280;62539;51.190;6.808;2022-11-20T07:10:06;100865.38;;;18.79;56.72
62617;BME280;62539;51.190;6.808;2022-11-20T07:12:32;100875.88;;;18.79;56.66
62617;BME280;62539;51.190;6.808;2022-11-20T07:14:57;100861.94;;;18.77;56.68
62617;BME280;62539;51.190;6.808;2022-11-20T07:17:22;100871.59;;;18.77;56.61
62617;BME280;62539;51.190;6.808;2022-11-20T07:19:48;100871.59;;;18.77;56.44
62617;BME280;62539;51.190;6.808;2022-11-20T07:22:13;100875.06;;;18.77;56.56
62617;BME280;62539;51.190;6.808;2022-11-20T07:24:39;100876.78;;;18.78;56.61
62617;BME280;62539;51.190;6.808;2022-11-20T07:27:04;100872.34;;;18.80;56.62
62617;BME280;62539;51.190;6.808;2022-11-20T07:29:30;100873.16;;;18.83;56.50
62617;BME280;62539;51.190;6.808;2022-11-20T07:31:55;100879.22;;;18.85;56.33
62617;BME280;62539;51.190;6.808;2022-11-20T07:34:21;100883.53;;;18.87;56.26
62617;BME280;62539;51.190;6.808;2022-11-20T07:36:47;100884.31;;;18.89;56.27
62617;BME280;62539;51.190;6.808;2022-11-20T07:39:12;100885.97;;;18.92;56.52
62617;BME280;62539;51.190;6.808;2022-11-20T07:41:38;100885.78;;;18.98;56.15
62617;BME280;62539;51.190;6.808;2022-11-20T07:44:03;100886.59;;;19.00;56.31
62617;BME280;62539;51.190;6.808;2022-11-20T07:46:28;100871.63;;;19.02;56.28
62617;BME280;62539;51.190;6.808;2022-11-20T07:48:54;100869.81;;;19.04;56.36
62617;BME280;62539;51.190;6.808;2022-11-20T07:51:19;100867.16;;;19.06;56.42
62617;BME280;62539;51.190;6.808;2022-11-20T07:53:45;100864.44;;;19.07;56.39
62617;BME280;62539;51.190;6.808;2022-11-20T07:56:10;100867.06;;;19.07;56.60
62617;BME280;62539;51.190;6.808;2022-11-20T07:58:36;100864.44;;;19.07;56.60
62617;BME280;62539;51.190;6.808;2022-11-20T08:01:07;100869.69;;;19.07;56.48
62617;BME280;62539;51.190;6.808;2022-11-20T08:03:33;100862.72;;;19.06;56.62
62617;BME280;62539;51.190;6.808;2022-11-20T08:06:00;100865.34;;;19.06;56.55
62617;BME280;62539;51.190;6.808;2022-11-20T08:08:26;100854.91;;;19.05;56.44
62617;BME280;62539;51.190;6.808;2022-11-20T08:10:52;100847.94;;;19.04;56.38
62617;BME280;62539;51.190;6.808;2022-11-20T08:13:17;100848.75;;;19.06;56.34
62617;BME280;62539;51.190;6.808;2022-11-20T08:16:01;100846.00;;;19.09;56.95
62617;BME280;62539;51.190;6.808;2022-11-20T08:18:27;100855.53;;;19.12;56.85
62617;BME280;62539;51.190;6.808;2022-11-20T08:20:52;100858.94;;;19.15;57.24
62617;BME280;62539;51.190;6.808;2022-11-20T08:23:18;100860.56;;;19.18;57.18
62617;BME280;62539;51.190;6.808;2022-11-20T08:25:43;100857.94;;;19.18;57.33
62617;BME280;62539;51.190;6.808;2022-11-20T08:28:13;100866.63;;;19.20;57.29
62617;BME280;62539;51.190;6.808;2022-11-20T08:30:38;100872.69;;;19.22;57.07
62617;BME280;62539;51.190;6.808;2022-11-20T08:33:07;100863.06;;;19.22;56.75
62617;BME280;62539;51.190;6.808;2022-11-20T08:35:34;100867.34;;;19.25;56.95
62617;BME280;62539;51.190;6.808;2022-11-20T08:38:05;100872.47;;;19.28;56.97
62617;BME280;62539;51.190;6.808;2022-11-20T08:40:30;100877.63;;;19.31;57.05
62617;BME280;62539;51.190;6.808;2022-11-20T08:42:56;100874.84;;;19.36;56.91
62617;BME280;62539;51.190;6.808;2022-11-20T08:45:22;100868.59;;;19.38;56.61
62617;BME280;62539;51.190;6.808;2022-11-20T08:47:47;100865.81;;;19.43;56.69
62617;BME280;62539;51.190;6.808;2022-11-20T08:50:14;100859.56;;;19.46;56.80
62617;BME280;62539;51.190;6.808;2022-11-20T08:52:42;100859.47;;;19.49;56.61
62617;BME280;62539;51.190;6.808;2022-11-20T08:55:08;100857.63;;;19.51;57.05
62617;BME280;62539;51.190;6.808;2022-11-20T08:57:36;100865.41;;;19.54;56.68
62617;BME280;62539;51.190;6.808;2022-11-20T09:00:04;100878.44;;;19.57;56.87
62617;BME280;62539;51.190;6.808;2022-11-20T09:02:30;100887.16;;;19.59;56.82
62617;BME280;62539;51.190;6.808;2022-11-20T09:04:57;100878.34;;;19.60;56.69
62617;BME280;62539;51.190;6.808;2022-11-20T09:07:23;100883.59;;;19.60;56.82
62617;BME280;62539;51.190;6.808;2022-11-20T09:09:48;100871.34;;;19.59;57.04
62617;BME280;62539;51.190;6.808;2022-11-20T09:12:14;100870.53;;;19.59;57.29
62617;BME280;62539;51.190;6.808;2022-11-20T09:14:39;100861.75;;;19.58;57.57
62617;BME280;62539;51.190;6.808;2022-11-20T09:17:04;100865.38;;;19.56;57.27
62617;BME280;62539;51.190;6.808;2022-11-20T09:19:32;100857.50;;;19.54;57.28
62617;BME280;62539;51.190;6.808;2022-11-20T09:21:58;100849.69;;;19.52;57.03
62617;BME280;62539;51.190;6.808;2022-11-20T09:24:25;100847.09;;;19.51;56.85
62617;BME280;62539;51.190;6.808;2022-11-20T09:26:53;100852.38;;;19.51;57.03
62617;BME280;62539;51.190;6.808;2022-11-20T09:29:18;100849.69;;;19.52;56.73
62617;BME280;62539;51.190;6.808;2022-11-20T09:31:44;100846.06;;;19.55;56.58
62617;BME280;62539;51.190;6.808;2022-11-20T09:34:09;100837.25;;;19.56;56.71
62617;BME280;62539;51.190;6.808;2022-11-20T09:36:35;100839.78;;;19.59;56.71
62617;BME280;62539;51.190;6.808;2022-11-20T09:39:00;100840.47;;;19.64;56.36
62617;BME280;62539;51.190;6.808;2022-11-20T09:45:03;100828.56;;;19.78;56.29
62617;BME280;62539;51.190;6.808;2022-11-20T09:50:37;100840.63;;;19.83;55.97
62617;BME280;62539;51.190;6.808;2022-11-20T09:53:37;100839.72;;;19.85;56.15
62617;BME280;62539;51.190;6.808;2022-11-20T09:56:37;100840.56;;;19.85;55.72
62617;BME280;62539;51.190;6.808;2022-11-20T09:59:15;100837.91;;;19.85;55.87
62617;BME280;62539;51.190;6.808;2022-11-20T10:01:51;100836.09;;;19.87;55.89
62617;BME280;62539;51.190;6.808;2022-11-20T10:04:20;100843.19;;;19.85;55.82
62617;BME280;62539;51.190;6.808;2022-11-20T10:07:03;100836.28;;;19.82;55.81
62617;BME280;62539;51.190;6.808;2022-11-20T10:09:40;100838.03;;;19.82;55.26
62617;BME280;62539;51.190;6.808;2022-11-20T10:12:20;100840.78;;;19.79;55.32
62617;BME280;62539;51.190;6.808;2022-11-20T10:18:05;100831.97;;;19.80;55.73
62617;BME280;62539;51.190;6.808;2022-11-20T10:24:02;100818.03;;;19.78;55.59
62617;BME280;62539;51.190;6.808;2022-11-20T10:27:07;100814.47;;;19.79;56.28
62617;BME280;62539;51.190;6.808;2022-11-20T10:30:00;100805.66;;;19.80;56.43
62617;BME280;62539;51.190;6.808;2022-11-20T10:32:52;100802.09;;;19.81;56.29
62617;BME280;62539;51.190;6.808;2022-11-20T10:35:41;100795.94;;;19.82;56.55
62617;BME280;62539;51.190;6.808;2022-11-20T10:38:25;100798.50;;;19.83;56.44
62617;BME280;62539;51.190;6.808;2022-11-20T10:41:05;100792.38;;;19.83;56.58
62617;BME280;62539;51.190;6.808;2022-11-20T10:43:53;100782.63;;;19.85;56.41
62617;BME280;62539;51.190;6.808;2022-11-20T10:46:36;100780.81;;;19.87;56.27
62617;BME280;62539;51.190;6.808;2022-11-20T10:49:13;100775.44;;;19.90;56.49
62617;BME280;62539;51.190;6.808;2022-11-20T10:52:19;100776.25;;;19.92;55.97
62617;BME280;62539;51.190;6.808;2022-11-20T10:55:31;100763.19;;;19.89;55.84
62617;BME280;62539;51.190;6.808;2022-11-20T10:58:12;100768.47;;;19.89;56.14
62617;BME280;62539;51.190;6.808;2022-11-20T11:00:41;100769.34;;;19.90;55.54
62617;BME280;62539;51.190;6.808;2022-11-20T11:03:23;100770.06;;;19.93;55.93
62617;BME280;62539;51.190;6.808;2022-11-20T11:06:06;100758.56;;;19.96;55.66
62617;BME280;62539;51.190;6.808;2022-11-20T11:08:38;100752.38;;;19.97;55.71
62617;BME280;62539;51.190;6.808;2022-11-20T11:11:20;100747.94;;;19.97;55.93
62617;BME280;62539;51.190;6.808;2022-11-20T11:13:48;100743.56;;;19.98;55.47
62617;BME280;62539;51.190;6.808;2022-11-20T11:16:25;100743.47;;;20.00;55.11
62617;BME280;62539;51.190;6.808;2022-11-20T11:19:03;100736.38;;;20.02;55.51
62617;BME280;62539;51.190;6.808;2022-11-20T11:21:37;100732.78;;;20.04;55.66
62617;BME280;62539;51.190;6.808;2022-11-20T11:24:19;100730.06;;;20.06;55.73
62617;BME280;62539;51.190;6.808;2022-11-20T11:26:52;100728.34;;;20.05;56.16
62617;BME280;62539;51.190;6.808;2022-11-20T11:29:19;100720.44;;;20.05;55.86
62617;BME280;62539;51.190;6.808;2022-11-20T11:31:45;100722.28;;;20.03;55.91
62617;BME280;62539;51.190;6.808;2022-11-20T11:34:16;100723.16;;;20.03;56.33
62617;BME280;62539;51.190;6.808;2022-11-20T11:36:47;100712.75;;;20.00;56.04
62617;BME280;62539;51.190;6.808;2022-11-20T11:39:19;100704.91;;;19.98;55.99
62617;BME280;62539;51.190;6.808;2022-11-20T11:41:47;100699.63;;;19.98;55.75
62617;BME280;62539;51.190;6.808;2022-11-20T11:44:17;100703.19;;;19.97;55.70
62617;BME280;62539;51.190;6.808;2022-11-20T11:47:24;100692.53;;;20.01;56.07
62617;BME280;62539;51.190;6.808;2022-11-20T11:52:53;100680.03;;;20.06;56.31
62617;BME280;62539;51.190;6.808;2022-11-20T11:55:57;100682.53;;;20.09;56.08
62617;BME280;62539;51.190;6.808;2022-11-20T12:04:42;100651.59;;;20.14;55.78
62617;BME280;62539;51.190;6.808;2022-11-20T12:07:21;100655.00;;;20.16;55.64
62617;BME280;62539;51.190;6.808;2022-11-20T12:09:58;100651.41;;;20.19;55.62
62617;BME280;62539;51.190;6.808;2022-11-20T12:12:31;100645.25;;;20.18;55.71
62617;BME280;62539;51.190;6.808;2022-11-20T12:15:04;100649.59;;;20.19;55.51
62617;BME280;62539;51.190;6.808;2022-11-20T12:17:34;100642.72;;;20.17;55.55
62617;BME280;62539;51.190;6.808;2022-11-20T12:20:00;100641.94;;;20.15;55.36
62617;BME280;62539;51.190;6.808;2022-11-20T12:22:47;100637.50;;;20.15;55.70
62617;BME280;62539;51.190;6.808;2022-11-20T12:25:32;100638.41;;;20.14;55.57
62617;BME280;62539;51.190;6.808;2022-11-20T12:37:20;100625.13;;;19.96;52.66
62617;BME280;62539;51.190;6.808;2022-11-20T12:40:00;100619.03;;;19.96;53.22
62617;BME280;62539;51.190;6.808;2022-11-20T12:51:51;100610.13;;;19.98;53.53
62617;BME280;62539;51.190;6.808;2022-11-20T13:00:17;100600.25;;;20.04;54.39
62617;BME280;62539;51.190;6.808;2022-11-20T13:05:58;100572.19;;;20.03;54.54
62617;BME280;62539;51.190;6.808;2022-11-20T13:08:41;100565.16;;;20.03;54.56
62617;BME280;62539;51.190;6.808;2022-11-20T13:11:41;100564.28;;;20.03;54.63
62617;BME280;62539;51.190;6.808;2022-11-20T13:17:29;100549.38;;;20.03;55.05
62617;BME280;62539;51.190;6.808;2022-11-20T13:19:57;100554.56;;;20.05;55.33
62617;BME280;62539;51.190;6.808;2022-11-20T13:22:47;100548.38;;;20.06;55.51
62617;BME280;62539;51.190;6.808;2022-11-20T13:25:27;100541.38;;;20.05;55.73
62617;BME280;62539;51.190;6.808;2022-11-20T13:27:53;100530.72;;;20.08;55.19
62617;BME280;62539;51.190;6.808;2022-11-20T13:30:22;100528.03;;;20.09;55.50
62617;BME280;62539;51.190;6.808;2022-11-20T13:32:57;100525.53;;;20.06;55.51
62617;BME280;62539;51.190;6.808;2022-11-20T13:35:31;100528.09;;;20.08;55.30
62617;BME280;62539;51.190;6.808;2022-11-20T13:38:01;100523.75;;;20.07;55.30
62617;BME280;62539;51.190;6.808;2022-11-20T13:43:22;100517.56;;;20.08;55.80
62617;BME280;62539;51.190;6.808;2022-11-20T13:46:00;100502.53;;;20.10;55.76
62617;BME280;62539;51.190;6.808;2022-11-20T13:48:43;100503.31;;;20.12;55.92
62617;BME280;62539;51.190;6.808;2022-11-20T14:00:48;100473.38;;;20.15;55.78
62617;BME280;62539;51.190;6.808;2022-11-20T14:03:22;100476.94;;;20.14;55.75
62617;BME280;62539;51.190;6.808;2022-11-20T14:05:54;100478.66;;;20.15;56.05
62617;BME280;62539;51.190;6.808;2022-11-20T14:08:39;100468.94;;;20.15;55.89
62617;BME280;62539;51.190;6.808;2022-11-20T14:16:24;100451.09;;;20.22;56.06
62617;BME280;62539;51.190;6.808;2022-11-20T14:18:51;100443.69;;;20.11;51.88